Time;durP1;ratioP1;P1;durP2;ratioP2;P2;SDS_P1;SDS_P2;PMS_P1;PMS_P2;Temp;Humidity;BMP_temperature;BMP_pressure;BME280_temperature;BME280_humidity;BME280_pressure;Samples;Min_cycle;Max_cycle;Signal;HPM_P1;HPM_P2
2021/08/23 04:31:04;;;;;;;7.43;3.70;;;15.20;99.90;;;;;;5735744;23;20513;-79
2021/08/23 04:33:29;;;;;;;3.10;2.90;;;15.20;99.90;;;;;;4924947;29;20430;-79
2021/08/23 04:35:55;;;;;;;6.30;3.63;;;15.30;99.90;;;;;;4919864;29;20774;-81
2021/08/23 04:38:21;;;;;;;9.77;3.50;;;15.20;99.90;;;;;;4917511;29;20221;-82
2021/08/23 04:40:46;;;;;;;4.80;3.90;;;15.20;99.90;;;;;;4911274;29;20202;-83
2021/08/23 04:43:12;;;;;;;4.03;3.67;;;15.20;99.90;;;;;;4919606;29;20207;-82
2021/08/23 04:45:37;;;;;;;3.60;3.30;;;15.30;99.90;;;;;;4920101;29;20651;-78
2021/08/23 04:48:03;;;;;;;4.20;3.80;;;15.30;99.90;;;;;;4904172;29;20198;-83
2021/08/23 04:50:28;;;;;;;3.80;3.20;;;15.30;99.90;;;;;;4882726;29;20556;-82
2021/08/23 04:52:54;;;;;;;4.73;3.10;;;15.20;99.90;;;;;;4884321;29;20283;-79
2021/08/23 04:55:20;;;;;;;4.30;3.40;;;15.20;99.90;;;;;;4884653;29;20195;-82
2021/08/23 04:57:45;;;;;;;10.33;3.93;;;15.20;99.90;;;;;;4883963;29;20611;-80
2021/08/23 05:00:11;;;;;;;5.23;3.73;;;15.20;99.90;;;;;;4885835;29;20175;-81
2021/08/23 05:02:38;;;;;;;3.23;3.03;;;15.20;99.90;;;;;;4879587;29;20215;-75
2021/08/23 05:05:05;;;;;;;3.77;2.83;;;15.20;99.90;;;;;;4879836;29;20415;-75
2021/08/23 05:07:30;;;;;;;4.63;4.07;;;15.20;99.90;;;;;;4891737;29;20431;-75
2021/08/23 05:09:56;;;;;;;4.50;3.33;;;15.20;99.90;;;;;;4894429;29;20466;-72
2021/08/23 05:12:21;;;;;;;6.63;4.10;;;15.20;99.90;;;;;;4877732;29;20222;-75
2021/08/23 05:14:47;;;;;;;3.87;3.23;;;15.20;99.90;;;;;;4879821;29;20549;-75
2021/08/23 05:17:13;;;;;;;3.97;3.33;;;15.20;99.90;;;;;;4900509;29;20269;-76
2021/08/23 05:19:38;;;;;;;5.53;3.50;;;15.20;99.90;;;;;;4900738;29;20667;-74
2021/08/23 05:22:04;;;;;;;7.13;3.70;;;15.20;99.90;;;;;;4900253;29;20730;-74
2021/08/23 05:24:29;;;;;;;3.57;3.00;;;15.30;99.90;;;;;;4901818;29;20214;-79
2021/08/23 05:26:55;;;;;;;6.33;2.80;;;15.30;99.90;;;;;;4889967;29;20202;-78
2021/08/23 05:29:20;;;;;;;7.23;3.87;;;15.30;99.90;;;;;;4884307;29;20192;-78
2021/08/23 05:31:46;;;;;;;4.90;4.50;;;15.30;99.90;;;;;;4895046;29;20641;-79
2021/08/23 05:34:11;;;;;;;3.63;3.17;;;15.40;99.90;;;;;;4892354;29;20277;-79
2021/08/23 05:36:37;;;;;;;7.53;3.80;;;15.40;99.90;;;;;;4898269;29;20191;-79
2021/08/23 05:39:03;;;;;;;5.13;3.70;;;15.40;99.90;;;;;;4884546;29;20217;-77
2021/08/23 05:41:31;;;;;;;4.00;3.63;;;15.40;99.90;;;;;;4887044;29;20565;-79
2021/08/23 05:43:56;;;;;;;4.90;4.20;;;15.30;99.90;;;;;;4899140;29;20564;-77
2021/08/23 05:46:23;;;;;;;5.30;4.03;;;15.40;99.90;;;;;;4899595;29;20540;-78
2021/08/23 05:48:49;;;;;;;5.00;3.87;;;15.50;99.90;;;;;;4899905;29;20197;-78
2021/08/23 05:51:16;;;;;;;6.57;3.83;;;15.50;99.90;;;;;;4900587;29;20847;-79
2021/08/23 05:53:42;;;;;;;6.40;3.77;;;15.50;99.90;;;;;;4900326;29;20502;-78
2021/08/23 05:56:08;;;;;;;5.33;3.10;;;15.50;99.90;;;;;;4900124;29;20419;-78
2021/08/23 05:58:33;;;;;;;8.60;3.37;;;15.50;99.90;;;;;;4899240;29;20525;-79
2021/08/23 06:00:59;;;;;;;7.63;4.50;;;15.50;99.90;;;;;;4900109;29;20305;-79
2021/08/23 06:03:25;;;;;;;4.20;3.80;;;15.60;99.90;;;;;;4898668;29;20187;-79
2021/08/23 06:05:50;;;;;;;4.10;3.80;;;15.80;99.90;;;;;;4899781;29;20186;-78
2021/08/23 06:08:16;;;;;;;6.10;3.30;;;15.90;99.90;;;;;;4899851;29;20178;-79
2021/08/23 06:10:41;;;;;;;3.47;3.13;;;16.00;99.90;;;;;;4886158;29;20246;-78
2021/08/23 06:13:07;;;;;;;7.10;3.70;;;16.00;99.90;;;;;;4899829;29;20216;-79
2021/08/23 06:15:32;;;;;;;10.17;2.90;;;16.30;99.90;;;;;;4898221;29;20194;-78
2021/08/23 06:17:58;;;;;;;7.73;3.80;;;16.60;99.90;;;;;;4892973;29;20273;-78
2021/08/23 06:20:23;;;;;;;3.97;3.60;;;16.70;99.90;;;;;;4884887;29;20252;-77
2021/08/23 06:22:50;;;;;;;3.40;3.10;;;16.80;99.90;;;;;;4881458;29;20275;-78
2021/08/23 06:25:16;;;;;;;4.10;3.77;;;16.80;99.90;;;;;;4886247;29;20190;-78
2021/08/23 06:27:41;;;;;;;4.33;3.60;;;16.70;99.90;;;;;;4895327;29;20436;-78
2021/08/23 06:30:10;;;;;;;5.43;2.67;;;16.70;99.90;;;;;;4897878;29;20599;-79
2021/08/23 06:32:35;;;;;;;4.27;3.90;;;16.70;99.90;;;;;;4887320;29;20221;-78
2021/08/23 06:35:03;;;;;;;2.83;2.73;;;16.80;99.90;;;;;;4899157;29;20415;-78
2021/08/23 06:37:30;;;;;;;4.70;3.03;;;16.90;99.90;;;;;;4899070;29;20185;-78
2021/08/23 06:39:57;;;;;;;3.97;3.47;;;16.80;99.90;;;;;;4898873;29;20423;-79
2021/08/23 06:42:22;;;;;;;4.67;2.93;;;16.80;99.90;;;;;;4899081;29;20962;-79
2021/08/23 06:44:48;;;;;;;5.03;3.13;;;16.80;99.90;;;;;;4898793;29;20473;-79
2021/08/23 06:47:13;;;;;;;8.57;4.07;;;16.80;99.90;;;;;;4898989;29;20257;-78
2021/08/23 06:49:39;;;;;;;3.17;2.97;;;16.80;99.90;;;;;;4898669;29;20197;-78
2021/08/23 06:52:05;;;;;;;6.60;3.87;;;16.90;99.90;;;;;;4895814;29;20222;-80
2021/08/23 06:54:31;;;;;;;5.70;3.13;;;16.90;99.90;;;;;;4896443;29;20486;-79
2021/08/23 06:56:56;;;;;;;3.70;3.20;;;17.00;99.90;;;;;;4897193;29;20279;-79
2021/08/23 06:59:22;;;;;;;6.07;3.53;;;17.00;99.90;;;;;;4898373;29;20178;-79
2021/08/23 07:01:47;;;;;;;6.03;3.17;;;17.00;99.90;;;;;;4897789;29;20203;-78
2021/08/23 07:04:13;;;;;;;5.57;2.80;;;17.00;99.90;;;;;;4897572;29;20183;-80
2021/08/23 07:06:38;;;;;;;5.00;3.50;;;17.10;99.90;;;;;;4898241;29;20246;-78
2021/08/23 07:09:04;;;;;;;6.80;3.80;;;17.10;99.90;;;;;;4898271;29;20194;-78
2021/08/23 07:11:29;;;;;;;7.30;3.33;;;17.10;99.90;;;;;;4887287;29;20645;-79
2021/08/23 07:13:55;;;;;;;5.50;3.53;;;17.20;99.90;;;;;;4897100;29;20255;-78
2021/08/23 07:16:20;;;;;;;5.50;3.40;;;17.20;99.90;;;;;;4898761;29;20258;-79
2021/08/23 07:18:46;;;;;;;8.53;4.10;;;17.20;99.90;;;;;;4891211;29;20269;-79
2021/08/23 07:21:11;;;;;;;4.83;3.30;;;17.20;99.90;;;;;;4893286;29;20211;-79
2021/08/23 07:23:37;;;;;;;5.30;3.73;;;17.20;99.90;;;;;;4895590;29;20187;-77
2021/08/23 07:26:02;;;;;;;7.30;3.23;;;17.30;99.90;;;;;;4896658;29;20214;-77
2021/08/23 07:28:28;;;;;;;5.20;3.30;;;17.30;99.90;;;;;;4898092;29;20351;-80
2021/08/23 07:30:54;;;;;;;6.57;3.43;;;17.50;99.90;;;;;;4897253;29;20300;-78
2021/08/23 07:33:19;;;;;;;11.67;3.77;;;17.60;99.90;;;;;;4896682;29;20175;-78
2021/08/23 07:35:45;;;;;;;4.17;3.17;;;17.60;99.90;;;;;;4897075;29;20679;-80
2021/08/23 07:38:10;;;;;;;5.20;3.50;;;17.70;99.90;;;;;;4897857;29;20178;-79
2021/08/23 07:40:36;;;;;;;4.30;3.13;;;17.70;99.90;;;;;;4897836;29;20280;-79
2021/08/23 07:43:02;;;;;;;5.90;4.30;;;17.70;99.90;;;;;;4897535;29;20174;-79
2021/08/23 07:45:27;;;;;;;7.77;3.10;;;17.80;99.90;;;;;;4897747;29;20234;-78
2021/08/23 07:47:53;;;;;;;3.60;3.30;;;17.90;99.90;;;;;;4897745;29;20179;-78
2021/08/23 07:50:18;;;;;;;5.50;3.80;;;17.90;99.90;;;;;;4897759;29;20186;-78
2021/08/23 07:52:44;;;;;;;4.90;3.87;;;17.90;99.90;;;;;;4897264;29;20293;-78
2021/08/23 07:55:11;;;;;;;3.10;2.63;;;17.90;99.90;;;;;;4897841;29;20190;-79
2021/08/23 07:57:41;;;;;;;5.33;3.10;;;18.00;99.90;;;;;;4897625;29;20291;-79
2021/08/23 08:00:07;;;;;;;6.47;3.37;;;18.10;99.90;;;;;;4897931;29;20490;-77
2021/08/23 08:02:33;;;;;;;3.63;2.50;;;18.10;99.90;;;;;;4897287;29;20439;-77
2021/08/23 08:04:59;;;;;;;3.97;3.40;;;18.10;99.90;;;;;;4896115;29;20951;-79
2021/08/23 08:07:24;;;;;;;3.30;3.00;;;18.10;99.90;;;;;;4897640;29;20251;-78
2021/08/23 08:09:50;;;;;;;3.33;2.93;;;18.30;99.90;;;;;;4897218;29;20299;-79
2021/08/23 08:12:15;;;;;;;4.80;2.60;;;18.30;99.90;;;;;;4896899;29;20636;-79
2021/08/23 08:14:41;;;;;;;3.97;2.80;;;18.40;99.90;;;;;;4897453;29;20182;-78
2021/08/23 08:17:06;;;;;;;4.00;3.10;;;18.50;99.90;;;;;;4896566;29;20183;-79
2021/08/23 08:19:32;;;;;;;4.70;2.30;;;18.70;99.90;;;;;;4897376;29;20190;-79
2021/08/23 08:22:04;;;;;;;4.27;2.73;;;18.80;99.90;;;;;;4896811;29;20198;-79
2021/08/23 08:24:29;;;;;;;4.10;2.77;;;18.80;99.90;;;;;;4897395;29;20318;-77
2021/08/23 08:26:55;;;;;;;3.77;2.67;;;18.70;99.90;;;;;;4897397;29;20455;-79
2021/08/23 08:29:20;;;;;;;3.37;2.90;;;18.50;99.90;;;;;;4897697;29;20506;-79
2021/08/23 08:31:46;;;;;;;3.93;2.87;;;18.30;99.90;;;;;;4897041;29;20225;-80
2021/08/23 08:34:12;;;;;;;5.87;2.83;;;18.30;99.90;;;;;;4897424;29;20171;-79
2021/08/23 08:36:37;;;;;;;3.20;2.73;;;18.30;99.90;;;;;;4897392;29;20201;-78
2021/08/23 08:39:03;;;;;;;2.87;2.60;;;18.40;99.90;;;;;;4896920;29;20182;-79
2021/08/23 08:41:30;;;;;;;6.77;3.20;;;18.30;99.90;;;;;;4897612;29;20262;-79
2021/08/23 08:43:56;;;;;;;5.63;3.10;;;18.40;99.90;;;;;;4897010;29;20262;-79
2021/08/23 08:46:22;;;;;;;2.53;2.40;;;18.50;99.90;;;;;;4897581;29;20938;-79
2021/08/23 08:48:47;;;;;;;4.37;2.80;;;18.60;99.90;;;;;;4894035;29;20447;-78
2021/08/23 08:51:14;;;;;;;8.67;3.90;;;18.70;99.90;;;;;;4894950;29;20222;-79
2021/08/23 08:53:40;;;;;;;3.57;3.10;;;18.70;99.90;;;;;;4893011;29;20183;-78
2021/08/23 08:56:05;;;;;;;5.03;2.97;;;18.80;99.90;;;;;;4884409;29;20475;-79
2021/08/23 08:58:32;;;;;;;3.30;3.00;;;19.00;99.90;;;;;;4897156;29;20179;-79
2021/08/23 09:00:58;;;;;;;3.07;2.80;;;19.10;99.90;;;;;;4897161;29;20195;-79
2021/08/23 09:03:26;;;;;;;5.10;2.60;;;19.10;99.90;;;;;;4879325;29;20579;-79
2021/08/23 09:06:00;;;;;;;5.10;3.07;;;19.20;99.90;;;;;;4879328;29;20427;-79
2021/08/23 09:08:28;;;;;;;4.77;2.90;;;19.20;99.90;;;;;;4892066;29;20427;-77
2021/08/23 09:11:13;;;;;;;9.13;2.40;;;19.30;99.90;;;;;;4896613;29;20513;-79
2021/08/23 09:14:06;;;;;;;3.70;3.40;;;19.40;99.90;;;;;;4896650;29;20418;-79
2021/08/23 09:16:38;;;;;;;5.93;3.30;;;19.40;99.90;;;;;;4897082;29;20466;-79
2021/08/23 09:19:05;;;;;;;4.33;2.20;;;19.40;99.90;;;;;;4896929;29;20450;-79
2021/08/23 09:21:38;;;;;;;3.87;3.43;;;19.30;99.90;;;;;;4896984;29;20451;-79
2021/08/23 09:24:20;;;;;;;2.50;2.30;;;19.30;99.90;;;;;;4896190;29;20422;-78
2021/08/23 09:26:46;;;;;;;7.23;2.60;;;19.30;99.90;;;;;;4877649;29;20420;-79
2021/08/23 09:29:12;;;;;;;4.40;3.63;;;19.20;99.90;;;;;;4876489;29;20419;-79
2021/08/23 09:31:39;;;;;;;7.90;3.07;;;19.20;99.90;;;;;;4877342;29;20226;-78
2021/08/23 09:34:10;;;;;;;5.27;2.93;;;19.30;99.90;;;;;;4878069;29;20190;-77
2021/08/23 09:36:36;;;;;;;14.07;3.73;;;19.30;99.90;;;;;;4877506;29;20423;-79
2021/08/23 09:39:03;;;;;;;4.90;3.00;;;19.30;99.90;;;;;;4877008;29;20424;-79
2021/08/23 09:41:29;;;;;;;3.73;3.17;;;19.40;99.90;;;;;;4876413;29;20546;-80
2021/08/23 09:44:07;;;;;;;7.40;3.13;;;19.60;99.90;;;;;;4876619;29;20419;-78
2021/08/23 09:46:34;;;;;;;5.43;2.97;;;20.20;99.90;;;;;;4877747;29;20427;-80
2021/08/23 09:49:06;;;;;;;5.13;2.53;;;20.60;99.90;;;;;;4877901;29;20436;-79
2021/08/23 09:51:39;;;;;;;4.63;3.23;;;20.60;99.90;;;;;;4877706;29;20475;-79
2021/08/23 09:54:19;;;;;;;5.67;5.17;;;20.50;99.90;;;;;;4877864;29;20419;-79
2021/08/23 09:56:47;;;;;;;4.17;3.57;;;20.40;99.90;;;;;;4877929;29;20444;-79
2021/08/23 09:59:24;;;;;;;3.13;2.83;;;20.30;99.90;;;;;;4878116;29;20839;-79
2021/08/23 10:01:52;;;;;;;3.10;2.50;;;20.20;99.90;;;;;;4879077;29;20462;-77
2021/08/23 10:04:19;;;;;;;2.70;2.50;;;20.20;99.90;;;;;;4881520;29;20515;-80
2021/08/23 10:06:46;;;;;;;3.43;3.10;;;20.30;99.90;;;;;;4879997;29;20936;-78
2021/08/23 10:09:22;;;;;;;2.83;2.27;;;20.40;99.90;;;;;;4881481;29;20511;-80
2021/08/23 10:11:49;;;;;;;2.73;2.53;;;20.50;99.90;;;;;;4881224;29;20581;-79
2021/08/23 10:14:15;;;;;;;2.67;2.00;;;20.60;99.90;;;;;;4879718;29;20451;-79
2021/08/23 10:16:41;;;;;;;2.60;2.40;;;20.70;99.90;;;;;;4881879;29;20471;-78
2021/08/23 10:19:09;;;;;;;4.63;2.37;;;20.80;99.90;;;;;;4881796;29;20502;-79
2021/08/23 10:21:36;;;;;;;3.87;2.67;;;20.80;99.90;;;;;;4881314;29;20444;-80
2021/08/23 10:24:03;;;;;;;5.47;3.27;;;20.80;99.90;;;;;;4881029;29;20934;-78
2021/08/23 10:26:38;;;;;;;5.00;2.90;;;20.90;99.90;;;;;;4881428;29;20435;-81
2021/08/23 10:29:09;;;;;;;3.97;2.20;;;20.80;99.90;;;;;;4881330;29;20479;-79
2021/08/23 10:31:36;;;;;;;3.90;2.47;;;20.80;99.90;;;;;;4881451;29;20883;-80
2021/08/23 10:34:14;;;;;;;3.53;2.50;;;20.90;99.90;;;;;;4881383;29;20586;-80
2021/08/23 10:36:40;;;;;;;5.70;2.93;;;20.90;99.90;;;;;;4881460;29;20956;-79
2021/08/23 10:39:06;;;;;;;4.70;3.20;;;21.10;99.90;;;;;;4881858;29;20625;-79
2021/08/23 10:41:32;;;;;;;3.63;2.30;;;21.20;99.90;;;;;;4881389;29;20483;-79
2021/08/23 10:44:04;;;;;;;2.23;2.00;;;21.30;99.90;;;;;;4891505;29;20247;-78
2021/08/23 10:46:38;;;;;;;3.80;2.27;;;21.40;99.90;;;;;;4884363;29;20282;-79
2021/08/23 10:49:13;;;;;;;2.20;2.00;;;21.50;99.90;;;;;;4890398;29;20866;-79
2021/08/23 10:51:40;;;;;;;2.47;2.27;;;21.50;99.90;;;;;;4887600;29;20467;-77
2021/08/23 10:54:26;;;;;;;2.17;2.07;;;21.40;99.90;;;;;;4895323;29;20431;-80
2021/08/23 10:57:00;;;;;;;2.47;2.30;;;21.20;99.90;;;;;;4892865;29;20435;-79
2021/08/23 10:59:38;;;;;;;7.87;2.20;;;21.00;99.90;;;;;;4895803;29;20941;-79
2021/08/23 11:02:03;;;;;;;3.17;2.03;;;20.80;99.90;;;;;;4899399;29;20506;-78
2021/08/23 11:04:32;;;;;;;6.23;2.40;;;20.70;99.90;;;;;;4890824;29;20435;-79
2021/08/23 11:06:59;;;;;;;3.33;2.10;;;20.60;99.90;;;;;;4887818;29;20191;-80
2021/08/23 11:09:38;;;;;;;3.00;2.10;;;20.50;99.90;;;;;;4893455;29;20432;-77
2021/08/23 11:12:18;;;;;;;2.03;1.73;;;20.50;99.90;;;;;;4895508;29;20473;-76
2021/08/23 11:14:51;;;;;;;2.33;2.10;;;20.60;99.90;;;;;;4897936;29;20415;-77
2021/08/23 11:17:31;;;;;;;2.30;1.30;;;20.70;99.90;;;;;;4886192;29;20431;-77
2021/08/23 11:19:58;;;;;;;2.70;1.57;;;20.90;99.90;;;;;;4880213;29;20435;-76
2021/08/23 11:22:25;;;;;;;2.07;1.87;;;20.90;99.90;;;;;;4880267;29;20436;-76
2021/08/23 11:24:50;;;;;;;1.50;1.40;;;21.00;99.90;;;;;;4883903;29;20428;-77
2021/08/23 11:27:16;;;;;;;3.37;2.10;;;21.20;99.90;;;;;;4880107;29;21167;-77
2021/08/23 11:29:56;;;;;;;1.63;1.53;;;21.30;99.90;;;;;;4877909;29;20183;-77
2021/08/23 11:32:29;;;;;;;2.00;1.77;;;21.40;99.90;;;;;;4886875;29;20206;-77
2021/08/23 11:34:57;;;;;;;1.50;1.40;;;21.50;99.90;;;;;;4895631;29;20443;-77
2021/08/23 11:37:25;;;;;;;2.70;1.90;;;21.70;99.90;;;;;;4915041;29;20478;-76
2021/08/23 11:40:09;;;;;;;2.30;2.10;;;22.10;99.90;;;;;;4911866;29;20414;-79
2021/08/23 11:42:36;;;;;;;1.77;1.67;;;22.40;99.90;;;;;;4898451;29;20442;-77
2021/08/23 11:45:02;;;;;;;1.83;1.73;;;22.40;99.90;;;;;;4897962;29;20434;-78
2021/08/23 11:47:30;;;;;;;4.93;1.67;;;22.10;99.90;;;;;;4906779;29;21110;-78
2021/08/23 11:49:56;;;;;;;2.33;1.50;;;21.90;99.90;;;;;;4914431;29;20442;-78
2021/08/23 11:52:22;;;;;;;1.47;1.37;;;22.10;99.90;;;;;;4881703;29;20479;-78
2021/08/23 11:54:51;;;;;;;1.50;1.40;;;22.20;99.90;;;;;;4879269;29;20172;-78
2021/08/23 11:57:26;;;;;;;2.20;1.47;;;22.20;99.90;;;;;;4878842;29;20171;-78
2021/08/23 12:00:00;;;;;;;2.27;1.60;;;22.30;99.90;;;;;;4879430;29;20415;-77
2021/08/23 12:02:36;;;;;;;2.33;1.47;;;22.40;99.90;;;;;;4878915;29;20443;-79
2021/08/23 12:05:10;;;;;;;6.37;1.83;;;22.50;99.90;;;;;;4878957;29;20426;-79
2021/08/23 12:07:50;;;;;;;3.23;1.87;;;22.60;99.90;;;;;;4877731;29;20822;-78
2021/08/23 12:10:22;;;;;;;2.17;1.63;;;22.60;99.90;;;;;;4878862;29;20423;-78
2021/08/23 12:12:48;;;;;;;1.77;1.67;;;22.80;99.90;;;;;;4879247;29;20471;-79
2021/08/23 12:15:18;;;;;;;1.80;1.70;;;23.00;99.90;;;;;;4878472;29;20483;-79
2021/08/23 12:17:44;;;;;;;2.23;1.27;;;23.20;99.90;;;;;;4878937;29;20655;-79
2021/08/23 12:20:10;;;;;;;2.60;1.57;;;23.00;99.90;;;;;;4887927;29;20525;-76
2021/08/23 12:22:35;;;;;;;1.20;1.20;;;22.90;99.90;;;;;;4896740;29;20207;-78
2021/08/23 12:25:01;;;;;;;1.30;1.20;;;23.00;99.90;;;;;;4898227;29;20419;-79
2021/08/23 12:27:28;;;;;;;1.60;1.50;;;23.30;99.90;;;;;;4897358;29;20182;-79
2021/08/23 12:29:53;;;;;;;1.20;1.10;;;22.90;99.90;;;;;;4897193;29;20419;-80
2021/08/23 12:32:19;;;;;;;1.27;1.10;;;22.90;99.90;;;;;;4897576;29;21005;-78
2021/08/23 12:34:47;;;;;;;1.40;1.33;;;23.10;99.90;;;;;;4893866;29;20278;-79
2021/08/23 12:37:15;;;;;;;1.20;1.10;;;23.10;99.90;;;;;;4894830;29;20179;-78
2021/08/23 12:39:44;;;;;;;1.63;1.53;;;23.20;99.90;;;;;;4896503;29;20442;-78
2021/08/23 12:42:10;;;;;;;2.50;1.23;;;23.30;99.90;;;;;;4897110;29;20970;-80
2021/08/23 12:44:36;;;;;;;2.00;1.53;;;23.50;99.90;;;;;;4897264;29;20430;-79
2021/08/23 12:47:03;;;;;;;1.77;1.67;;;23.60;99.90;;;;;;4897040;29;20273;-79
2021/08/23 12:49:29;;;;;;;4.30;1.27;;;23.60;99.90;;;;;;4897139;29;20519;-79
2021/08/23 12:51:54;;;;;;;2.00;1.43;;;23.50;99.90;;;;;;4897004;29;20561;-78
2021/08/23 12:54:21;;;;;;;2.17;1.33;;;23.60;99.90;;;;;;4897023;29;20182;-78
2021/08/23 12:56:48;;;;;;;1.43;1.33;;;23.60;99.90;;;;;;4896695;29;20534;-79
2021/08/23 12:59:15;;;;;;;2.60;1.73;;;23.80;99.90;;;;;;4896629;29;20411;-78
2021/08/23 13:01:40;;;;;;;2.50;1.50;;;23.90;99.90;;;;;;4896401;29;20811;-78
2021/08/23 13:04:07;;;;;;;1.57;1.47;;;23.80;99.90;;;;;;4896390;29;20435;-78
2021/08/23 13:06:32;;;;;;;1.33;1.20;;;23.60;99.90;;;;;;4896502;29;20171;-78
2021/08/23 13:08:59;;;;;;;1.83;1.73;;;23.40;99.90;;;;;;4896626;29;20424;-79
2021/08/23 13:11:24;;;;;;;1.57;1.47;;;23.20;99.90;;;;;;4896795;29;20211;-78
2021/08/23 13:13:50;;;;;;;1.27;1.17;;;23.10;99.90;;;;;;4896161;29;20425;-79
2021/08/23 13:16:16;;;;;;;1.40;1.30;;;23.00;99.90;;;;;;4896680;29;20175;-78
2021/08/23 13:18:42;;;;;;;1.90;1.80;;;22.80;99.90;;;;;;4896821;29;20210;-78
2021/08/23 13:21:09;;;;;;;2.50;1.43;;;22.70;99.90;;;;;;4896765;29;20569;-78
2021/08/23 13:23:35;;;;;;;1.80;1.33;;;22.70;99.90;;;;;;4896574;29;20418;-78
2021/08/23 13:26:02;;;;;;;3.27;1.77;;;22.70;99.90;;;;;;4896398;29;20520;-79
2021/08/23 13:28:28;;;;;;;1.77;1.40;;;23.00;99.90;;;;;;4896368;29;20785;-78
2021/08/23 13:30:54;;;;;;;1.60;1.50;;;23.10;99.90;;;;;;4896359;29;20537;-79
2021/08/23 13:33:20;;;;;;;2.30;2.10;;;23.10;99.90;;;;;;4896453;29;20730;-79
2021/08/23 13:35:45;;;;;;;2.47;1.50;;;23.20;99.90;;;;;;4897191;29;20663;-79
2021/08/23 13:38:13;;;;;;;2.10;1.37;;;23.10;99.90;;;;;;4899798;29;20229;-78
2021/08/23 13:40:44;;;;;;;3.00;1.97;;;23.20;99.90;;;;;;4900198;29;20175;-78
2021/08/23 13:43:15;;;;;;;3.53;2.00;;;23.20;99.90;;;;;;4900267;29;20791;-78
2021/08/23 13:45:42;;;;;;;1.93;1.77;;;23.20;99.90;;;;;;4900132;29;20912;-79
2021/08/23 13:48:10;;;;;;;1.90;1.80;;;23.30;99.90;;;;;;4900180;29;20421;-79
2021/08/23 13:50:37;;;;;;;1.93;1.83;;;23.30;99.90;;;;;;4900170;29;20426;-77
2021/08/23 13:53:03;;;;;;;1.93;1.83;;;23.40;99.90;;;;;;4899590;29;20481;-79
2021/08/23 13:55:28;;;;;;;6.40;2.20;;;23.10;99.90;;;;;;4899986;29;21272;-78
2021/08/23 13:57:54;;;;;;;1.57;1.47;;;23.10;99.90;;;;;;4899847;29;20459;-77
2021/08/23 14:00:20;;;;;;;2.43;2.10;;;22.90;99.90;;;;;;4899903;29;20671;-79
2021/08/23 14:02:46;;;;;;;2.30;2.10;;;22.80;99.90;;;;;;4899470;29;20506;-79
2021/08/23 14:05:12;;;;;;;2.43;1.90;;;22.60;99.90;;;;;;4899700;29;20183;-79
2021/08/23 14:07:37;;;;;;;3.13;2.77;;;22.40;99.90;;;;;;4899857;29;20556;-78
2021/08/23 14:10:04;;;;;;;2.17;2.07;;;22.30;99.90;;;;;;4899680;29;20429;-79
2021/08/23 14:12:30;;;;;;;2.07;1.83;;;22.20;99.90;;;;;;4899114;29;20210;-77
2021/08/23 14:14:55;;;;;;;2.40;2.20;;;22.30;99.90;;;;;;4899429;29;20422;-78
2021/08/23 14:17:21;;;;;;;2.10;2.00;;;22.20;99.90;;;;;;4899336;29;20183;-78
2021/08/23 14:19:47;;;;;;;2.80;2.60;;;22.30;99.90;;;;;;4899207;29;20179;-79
2021/08/23 14:22:12;;;;;;;2.77;2.57;;;22.20;99.90;;;;;;4899215;29;20210;-79
2021/08/23 14:24:38;;;;;;;3.53;3.20;;;22.30;99.90;;;;;;4899077;29;20198;-78
2021/08/23 14:27:03;;;;;;;3.00;2.80;;;22.30;99.90;;;;;;4899633;29;20262;-80
2021/08/23 14:29:29;;;;;;;2.13;2.00;;;22.30;99.90;;;;;;4898466;29;20182;-79
2021/08/23 14:31:57;;;;;;;2.77;2.40;;;22.20;99.90;;;;;;4898913;29;20219;-79
2021/08/23 14:34:22;;;;;;;2.77;2.60;;;22.10;99.90;;;;;;4899397;29;20314;-80
2021/08/23 14:36:48;;;;;;;2.63;2.43;;;22.00;99.90;;;;;;4898978;29;20952;-79
2021/08/23 14:39:14;;;;;;;3.27;2.90;;;22.00;99.90;;;;;;4899222;29;20206;-80
2021/08/23 14:41:39;;;;;;;2.80;2.60;;;22.00;99.90;;;;;;4899608;29;20210;-80
2021/08/23 14:44:05;;;;;;;2.63;2.23;;;21.90;99.90;;;;;;4899314;29;20175;-78
2021/08/23 14:46:31;;;;;;;2.67;2.50;;;21.80;99.90;;;;;;4898656;29;20233;-79
2021/08/23 14:48:56;;;;;;;2.20;2.10;;;21.80;99.90;;;;;;4898489;29;20171;-80
2021/08/23 14:51:22;;;;;;;2.80;2.60;;;21.70;99.90;;;;;;4899151;29;21003;-79
2021/08/23 14:53:47;;;;;;;4.03;3.77;;;21.60;99.90;;;;;;4898986;29;20234;-79
2021/08/23 14:56:13;;;;;;;2.90;2.70;;;21.60;99.90;;;;;;4898712;29;20171;-79
2021/08/23 14:58:38;;;;;;;9.00;2.50;;;21.50;99.90;;;;;;4898902;29;20186;-79
2021/08/23 15:01:09;;;;;;;3.07;2.87;;;21.50;99.90;;;;;;4898939;29;20239;-79
2021/08/23 15:03:35;;;;;;;2.50;2.30;;;21.40;99.90;;;;;;4899068;29;20227;-80
2021/08/23 15:06:01;;;;;;;3.63;3.00;;;21.60;99.90;;;;;;4898712;29;20427;-80
2021/08/23 15:08:26;;;;;;;3.30;3.00;;;21.80;99.90;;;;;;4899193;29;20175;-79
2021/08/23 15:10:53;;;;;;;2.90;2.70;;;22.00;99.90;;;;;;4898602;29;20612;-79
2021/08/23 15:13:19;;;;;;;2.50;2.40;;;22.10;99.90;;;;;;4898964;29;20221;-79
2021/08/23 15:15:45;;;;;;;3.00;2.70;;;22.20;99.90;;;;;;4894963;29;20422;-79
2021/08/23 15:18:11;;;;;;;2.50;2.30;;;22.30;99.90;;;;;;4888479;29;20518;-79
2021/08/23 15:20:37;;;;;;;2.50;2.40;;;22.20;99.90;;;;;;4885119;29;20194;-77
2021/08/23 15:23:07;;;;;;;2.93;2.73;;;22.10;99.90;;;;;;4889138;29;20780;-79
2021/08/23 15:25:38;;;;;;;2.40;2.20;;;22.10;99.90;;;;;;4896790;29;20202;-79
2021/08/23 15:28:06;;;;;;;2.93;2.73;;;22.00;99.90;;;;;;4895404;29;20431;-77
2021/08/23 15:30:32;;;;;;;2.47;2.37;;;22.00;99.90;;;;;;4889273;29;20511;-77
2021/08/23 15:32:58;;;;;;;2.70;2.50;;;22.00;99.90;;;;;;4898401;29;20462;-78
2021/08/23 15:35:23;;;;;;;6.40;2.20;;;22.00;99.90;;;;;;4898324;29;20479;-80
2021/08/23 15:37:49;;;;;;;4.90;2.20;;;22.10;99.90;;;;;;4895882;29;20211;-79
2021/08/23 15:40:15;;;;;;;2.50;2.30;;;22.10;99.90;;;;;;4893288;29;20621;-78
2021/08/23 15:42:40;;;;;;;2.67;2.47;;;22.10;99.90;;;;;;4891982;29;20217;-78
2021/08/23 15:45:06;;;;;;;2.43;2.27;;;22.30;99.90;;;;;;4913025;29;20311;-79
2021/08/23 15:47:32;;;;;;;1.93;1.83;;;22.30;99.90;;;;;;4894853;29;20202;-78
2021/08/23 15:49:58;;;;;;;2.30;1.97;;;22.20;99.90;;;;;;4878137;29;20511;-78
2021/08/23 15:52:23;;;;;;;2.30;2.20;;;22.30;99.90;;;;;;4884745;29;20474;-77
2021/08/23 15:54:50;;;;;;;3.63;2.23;;;22.30;99.90;;;;;;4892655;29;20194;-77
2021/08/23 15:57:16;;;;;;;2.17;2.07;;;22.30;99.90;;;;;;4892649;29;20242;-77
2021/08/23 15:59:42;;;;;;;2.63;2.43;;;22.20;99.90;;;;;;4889098;29;20431;-77
2021/08/23 16:02:08;;;;;;;3.13;2.83;;;22.10;99.90;;;;;;4885156;29;20462;-76
2021/08/23 16:04:37;;;;;;;5.23;4.60;;;21.70;99.90;;;;;;4897420;29;20189;-77
2021/08/23 16:07:03;;;;;;;4.30;4.00;;;20.70;99.90;;;;;;4891962;29;20209;-77
2021/08/23 16:09:28;;;;;;;7.83;5.30;;;19.90;99.90;;;;;;4896944;29;20909;-74
2021/08/23 16:11:54;;;;;;;7.17;6.07;;;19.30;99.90;;;;;;4889304;29;20218;-74
2021/08/23 16:14:20;;;;;;;6.67;5.93;;;18.80;99.90;;;;;;4888254;29;20179;-75
2021/08/23 16:16:45;;;;;;;6.00;5.50;;;18.60;99.90;;;;;;4878387;29;20502;-74
2021/08/23 16:19:11;;;;;;;9.67;7.30;;;18.40;99.90;;;;;;4883627;29;20307;-74
2021/08/23 16:21:36;;;;;;;6.97;6.30;;;18.30;99.90;;;;;;4895489;29;20223;-74
2021/08/23 16:24:02;;;;;;;7.83;6.83;;;18.30;99.90;;;;;;4891535;29;20887;-72
2021/08/23 16:26:28;;;;;;;6.30;5.80;;;18.30;99.90;;;;;;4881909;29;20670;-73
2021/08/23 16:28:53;;;;;;;6.73;6.13;;;18.30;99.90;;;;;;4903474;29;20201;-73
2021/08/23 16:31:24;;;;;;;9.73;6.53;;;18.30;99.90;;;;;;4903081;29;20222;-74
2021/08/23 16:33:50;;;;;;;7.77;6.57;;;18.30;99.90;;;;;;4880186;29;20548;-74
2021/08/23 16:36:16;;;;;;;8.80;7.93;;;18.30;99.90;;;;;;4878182;29;20456;-75
2021/08/23 16:38:41;;;;;;;8.90;7.90;;;18.30;99.90;;;;;;4888823;29;20179;-74
2021/08/23 16:41:07;;;;;;;8.40;7.70;;;18.40;99.90;;;;;;4888575;29;20209;-75
2021/08/23 16:43:32;;;;;;;7.60;6.90;;;18.40;99.90;;;;;;4885816;29;20266;-75
2021/08/23 16:45:58;;;;;;;7.80;6.97;;;18.50;99.90;;;;;;4894993;29;20233;-74
2021/08/23 16:48:23;;;;;;;9.50;7.60;;;18.50;99.90;;;;;;4896240;29;20661;-74
2021/08/23 16:50:49;;;;;;;7.80;6.43;;;18.50;99.90;;;;;;4893896;29;20672;-76
2021/08/23 16:53:14;;;;;;;7.70;7.00;;;18.60;99.90;;;;;;4892095;29;20335;-75
2021/08/23 16:55:40;;;;;;;7.57;6.97;;;18.50;99.90;;;;;;4893551;29;20190;-76
2021/08/23 16:58:06;;;;;;;7.50;6.83;;;18.60;99.90;;;;;;4894256;29;20179;-74
2021/08/23 17:00:31;;;;;;;8.40;7.53;;;18.60;99.90;;;;;;4893431;29;20178;-73
2021/08/23 17:02:57;;;;;;;7.33;6.53;;;18.60;99.90;;;;;;4895554;29;20205;-73
2021/08/23 17:05:22;;;;;;;8.90;8.10;;;18.60;99.90;;;;;;4894853;29;20250;-73
2021/08/23 17:07:49;;;;;;;9.07;8.17;;;18.50;99.90;;;;;;4896073;29;20206;-73
2021/08/23 17:10:15;;;;;;;7.50;6.90;;;18.60;99.90;;;;;;4896828;29;20190;-74
2021/08/23 17:12:42;;;;;;;10.53;8.37;;;18.60;99.90;;;;;;4899476;29;20467;-74
2021/08/23 17:15:08;;;;;;;10.00;7.93;;;18.60;99.90;;;;;;4900073;29;20450;-74